Time;durP1;ratioP1;P1;durP2;ratioP2;P2;SDS_P1;SDS_P2;PMS_P1;PMS_P2;Temp;Humidity;BMP_temperature;BMP_pressure;BME280_temperature;BME280_humidity;BME280_pressure;Samples;Min_cycle;Max_cycle;Signal;HPM_P1;HPM_P2
2022/08/01 00:01:16;;;;;;;12.30;8.40;;;18.60;99.90;;;;;;5072729;28;20042;-70
2022/08/01 00:03:41;;;;;;;13.52;8.40;;;18.50;99.90;;;;;;5038999;28;20047;-70
2022/08/01 00:06:07;;;;;;;10.60;8.25;;;18.80;99.90;;;;;;5073233;28;20033;-70
2022/08/01 00:08:33;;;;;;;11.38;8.10;;;18.70;99.90;;;;;;5073819;28;20465;-71
2022/08/01 00:10:58;;;;;;;10.68;8.25;;;18.60;99.90;;;;;;5054774;28;20089;-70
2022/08/01 00:13:24;;;;;;;12.25;9.55;;;18.60;99.90;;;;;;5072126;28;20072;-70
2022/08/01 00:15:49;;;;;;;11.18;8.95;;;18.40;99.90;;;;;;5038679;28;20078;-70
2022/08/01 00:18:15;;;;;;;15.05;9.30;;;18.70;99.90;;;;;;5055555;28;20417;-71
2022/08/01 00:20:40;;;;;;;10.85;8.38;;;18.40;99.90;;;;;;5072010;28;20041;-71
2022/08/01 00:23:06;;;;;;;11.70;8.00;;;18.60;99.90;;;;;;5072278;28;20501;-70
2022/08/01 00:25:32;;;;;;;9.77;6.22;;;19.70;99.90;;;;;;5054991;28;20041;-70
2022/08/01 00:27:57;;;;;;;8.38;4.93;;;18.50;99.90;;;;;;5055421;28;20040;-70
2022/08/01 00:30:23;;;;;;;6.82;4.90;;;18.50;99.90;;;;;;5055750;28;20028;-70
2022/08/01 00:32:48;;;;;;;5.78;4.30;;;18.50;99.90;;;;;;5038529;28;20044;-70
2022/08/01 00:35:14;;;;;;;8.55;4.85;;;18.80;99.90;;;;;;5072702;28;20028;-70
2022/08/01 00:37:40;;;;;;;5.70;4.15;;;18.70;99.90;;;;;;5055101;28;20504;-70
2022/08/01 00:40:07;;;;;;;6.65;4.35;;;18.10;99.90;;;;;;5071652;28;20073;-70
2022/08/01 00:42:32;;;;;;;5.28;3.88;;;18.50;99.90;;;;;;5054944;28;20123;-71
2022/08/01 00:44:58;;;;;;;6.72;3.97;;;18.70;99.90;;;;;;5054719;28;20493;-70
2022/08/01 00:47:23;;;;;;;6.07;4.47;;;18.20;99.90;;;;;;5072925;28;20083;-70
2022/08/01 00:49:49;;;;;;;5.38;3.80;;;18.10;99.90;;;;;;5072740;28;20055;-71
2022/08/01 00:52:15;;;;;;;6.25;3.95;;;18.50;99.90;;;;;;5072961;28;20036;-70
2022/08/01 00:54:40;;;;;;;6.57;3.97;;;18.10;99.90;;;;;;5054337;28;20047;-70
2022/08/01 00:57:06;;;;;;;8.38;4.07;;;17.70;99.90;;;;;;5072825;28;20378;-70
2022/08/01 00:59:32;;;;;;;6.65;3.65;;;18.20;99.90;;;;;;5072654;28;20040;-70
2022/08/01 01:01:58;;;;;;;7.85;3.92;;;18.10;99.90;;;;;;5054753;28;20172;-70
2022/08/01 01:04:23;;;;;;;5.85;3.88;;;18.10;99.90;;;;;;5071876;28;20052;-71
2022/08/01 01:07:18;;;;;;;7.13;3.55;;;18.50;99.90;;;;;;5054381;28;20047;-70
2022/08/01 01:10:02;;;;;;;7.53;3.25;;;18.20;99.90;;;;;;5072286;28;20555;-70
2022/08/01 01:12:46;;;;;;;7.20;3.42;;;17.90;99.90;;;;;;5072488;28;20040;-70
2022/08/01 01:15:49;;;;;;;6.85;2.85;;;18.30;99.90;;;;;;5072179;28;20079;-70
2022/08/01 01:18:25;;;;;;;5.10;2.38;;;17.90;99.90;;;;;;5011104;28;20052;-70
2022/08/01 01:21:17;;;;;;;7.50;2.92;;;17.90;99.90;;;;;;5054373;28;20090;-70
2022/08/01 01:24:10;;;;;;;7.25;2.80;;;18.00;99.90;;;;;;5053049;28;20039;-70
2022/08/01 01:26:59;;;;;;;6.25;2.30;;;18.00;99.90;;;;;;5072113;28;20064;-70
2022/08/01 01:29:27;;;;;;;6.32;2.35;;;17.70;99.90;;;;;;5071962;28;20576;-71
2022/08/01 01:32:07;;;;;;;4.93;2.30;;;17.30;99.90;;;;;;5072445;28;20470;-70
2022/08/01 01:34:42;;;;;;;4.82;1.73;;;17.90;99.90;;;;;;5053728;28;20047;-71
2022/08/01 01:37:14;;;;;;;5.05;1.95;;;17.60;99.90;;;;;;5053573;28;20375;-70
2022/08/01 01:39:41;;;;;;;4.80;1.95;;;17.80;99.90;;;;;;5053899;28;20048;-71
2022/08/01 01:42:07;;;;;;;6.55;1.90;;;17.60;99.90;;;;;;5053964;28;20045;-70
2022/08/01 01:44:35;;;;;;;5.65;1.60;;;17.60;99.90;;;;;;5053468;28;20059;-70
2022/08/01 01:47:02;;;;;;;5.75;1.80;;;17.80;99.90;;;;;;5053812;28;20040;-71
2022/08/01 01:49:29;;;;;;;2.80;1.30;;;17.80;99.90;;;;;;5054210;28;20127;-70
2022/08/01 01:51:58;;;;;;;5.32;1.60;;;17.80;99.90;;;;;;5071512;28;20032;-70
2022/08/01 01:54:28;;;;;;;2.22;1.27;;;17.70;99.90;;;;;;5071329;28;20043;-71
2022/08/01 01:56:58;;;;;;;3.50;1.52;;;17.70;99.90;;;;;;5070326;28;20036;-71
2022/08/01 01:59:28;;;;;;;5.63;1.63;;;17.60;99.90;;;;;;5053680;28;20047;-71
2022/08/01 02:01:57;;;;;;;4.97;1.75;;;17.60;99.90;;;;;;5053849;28;20047;-71
2022/08/01 02:04:24;;;;;;;5.03;1.60;;;17.80;99.90;;;;;;5070928;28;20049;-71
2022/08/01 02:06:51;;;;;;;4.25;1.70;;;17.80;99.90;;;;;;5053534;28;20582;-71
2022/08/01 02:09:19;;;;;;;2.78;1.70;;;17.70;99.90;;;;;;5071634;28;20047;-72
2022/08/01 02:11:48;;;;;;;5.50;2.50;;;17.60;99.90;;;;;;5071653;28;20353;-71
2022/08/01 02:14:17;;;;;;;3.80;2.28;;;17.40;99.90;;;;;;5053054;28;20036;-71
2022/08/01 02:16:47;;;;;;;8.15;2.38;;;17.40;99.90;;;;;;5053499;28;20089;-72
2022/08/01 02:19:14;;;;;;;3.50;2.22;;;17.40;99.90;;;;;;5071827;28;20075;-71
2022/08/01 02:22:00;;;;;;;10.65;3.00;;;18.00;99.90;;;;;;5053343;28;20032;-71
2022/08/01 02:24:44;;;;;;;4.30;2.28;;;17.60;99.90;;;;;;5053292;28;20411;-71
2022/08/01 02:27:15;;;;;;;12.55;3.15;;;17.60;99.90;;;;;;5053211;28;20071;-71
2022/08/01 02:29:44;;;;;;;5.28;2.30;;;17.40;99.90;;;;;;5053190;28;20083;-71
2022/08/01 02:32:25;;;;;;;7.47;2.45;;;17.70;99.90;;;;;;5053489;28;20036;-71
2022/08/01 02:34:53;;;;;;;7.07;2.40;;;17.50;99.90;;;;;;5055833;28;20083;-71
2022/08/01 02:37:20;;;;;;;8.55;2.50;;;17.50;99.90;;;;;;5075419;28;20452;-72
2022/08/01 02:39:50;;;;;;;10.82;3.70;;;17.50;99.90;;;;;;5057754;28;20044;-71
2022/08/01 02:42:18;;;;;;;7.25;2.47;;;18.10;99.90;;;;;;5075452;28;20048;-71
2022/08/01 02:44:47;;;;;;;6.85;2.90;;;18.00;99.90;;;;;;5074683;28;20513;-71
2022/08/01 02:47:13;;;;;;;10.00;3.42;;;17.50;99.90;;;;;;5075162;28;20093;-71
2022/08/01 02:49:44;;;;;;;10.73;3.00;;;17.60;99.90;;;;;;5057177;28;20040;-71
2022/08/01 02:52:14;;;;;;;13.70;3.72;;;17.90;99.90;;;;;;5040680;28;20083;-72
2022/08/01 02:54:43;;;;;;;9.32;2.92;;;17.10;99.90;;;;;;5074479;28;20417;-72
2022/08/01 02:57:10;;;;;;;8.15;3.30;;;18.00;99.90;;;;;;5056975;28;20097;-71
2022/08/01 02:59:37;;;;;;;10.77;2.92;;;17.30;99.90;;;;;;5075250;28;20032;-71
2022/08/01 03:02:05;;;;;;;12.45;3.17;;;17.40;99.90;;;;;;5056942;28;20041;-72
2022/08/01 03:04:34;;;;;;;8.50;3.25;;;17.30;99.90;;;;;;5074312;28;20541;-71
2022/08/01 03:07:03;;;;;;;8.38;3.33;;;17.30;99.90;;;;;;5056877;28;20453;-71
2022/08/01 03:09:32;;;;;;;8.25;3.70;;;17.40;99.90;;;;;;5056741;28;20044;-71
2022/08/01 03:12:02;;;;;;;14.40;3.55;;;17.30;99.90;;;;;;5074495;28;20029;-71
2022/08/01 03:14:30;;;;;;;7.88;3.50;;;17.10;99.90;;;;;;5056338;28;20064;-72
2022/08/01 03:16:57;;;;;;;11.98;3.55;;;17.30;99.90;;;;;;5039946;28;20048;-71
2022/08/01 03:19:25;;;;;;;7.07;2.83;;;17.30;99.90;;;;;;5056807;28;20417;-71
2022/08/01 03:21:52;;;;;;;13.43;4.00;;;17.30;99.90;;;;;;5040260;28;20448;-71
2022/08/01 03:24:19;;;;;;;11.10;3.28;;;17.40;99.90;;;;;;5056065;28;20040;-72
2022/08/01 03:26:45;;;;;;;9.43;3.53;;;17.40;99.90;;;;;;5056432;28;20098;-72
2022/08/01 03:29:19;;;;;;;9.40;3.10;;;17.40;99.90;;;;;;5056481;28;20521;-71
2022/08/01 03:31:47;;;;;;;12.60;3.95;;;17.00;99.90;;;;;;5074416;28;20129;-71
2022/08/01 03:34:13;;;;;;;10.70;3.90;;;17.10;99.90;;;;;;5055785;28;20051;-71
2022/08/01 03:36:47;;;;;;;13.50;3.90;;;17.00;99.90;;;;;;5039543;28;20037;-72
2022/08/01 03:39:15;;;;;;;15.43;4.25;;;17.40;99.90;;;;;;5056220;28;20431;-71
2022/08/01 03:41:48;;;;;;;19.88;4.22;;;17.00;99.90;;;;;;5055925;28;20036;-71
2022/08/01 03:44:17;;;;;;;19.10;4.57;;;17.10;99.90;;;;;;5055840;28;20478;-71
2022/08/01 03:46:47;;;;;;;14.52;3.95;;;17.20;99.90;;;;;;5072678;28;20048;-71
2022/08/01 03:49:20;;;;;;;10.95;4.10;;;16.90;99.90;;;;;;5055799;28;20043;-71
2022/08/01 03:51:49;;;;;;;;;;;17.30;99.90;;;;;;5074516;28;20078;-71
2022/08/01 03:54:17;;;;;;;8.70;3.45;;;17.00;99.90;;;;;;5073647;28;20385;-71
2022/08/01 03:56:44;;;;;;;17.33;4.28;;;16.80;99.90;;;;;;5039242;28;20066;-73
2022/08/01 03:59:10;;;;;;;17.10;3.75;;;17.20;99.90;;;;;;5055806;28;20041;-71
2022/08/01 04:01:37;;;;;;;10.68;3.00;;;17.20;99.90;;;;;;5055781;28;20037;-72
2022/08/01 04:04:04;;;;;;;17.73;3.95;;;17.10;99.90;;;;;;5055573;28;20386;-71
2022/08/01 04:06:30;;;;;;;10.70;4.40;;;17.30;99.90;;;;;;5073808;28;20044;-72
2022/08/01 04:08:56;;;;;;;15.07;3.40;;;16.80;99.90;;;;;;5072511;28;20056;-71
2022/08/01 04:11:27;;;;;;;15.70;3.90;;;17.00;99.90;;;;;;5055625;28;20055;-71
2022/08/01 04:13:54;;;;;;;13.50;4.22;;;17.00;99.90;;;;;;5073110;28;20040;-69
2022/08/01 04:16:20;;;;;;;14.20;3.42;;;17.00;99.90;;;;;;5055435;28;20040;-71
2022/08/01 04:18:46;;;;;;;16.13;3.90;;;16.80;99.90;;;;;;5073354;28;20410;-72
2022/08/01 04:21:17;;;;;;;13.68;4.03;;;17.40;99.90;;;;;;5055828;28;20047;-72
2022/08/01 04:23:46;;;;;;;18.83;3.67;;;17.00;99.90;;;;;;5055356;28;20047;-70
2022/08/01 04:26:15;;;;;;;18.85;3.83;;;16.90;99.90;;;;;;5055499;28;20409;-72
2022/08/01 04:28:44;;;;;;;14.50;3.10;;;16.70;99.90;;;;;;5055114;28;20066;-71
2022/08/01 04:31:11;;;;;;;21.15;4.13;;;17.00;99.90;;;;;;5055233;28;20404;-71
2022/08/01 04:33:40;;;;;;;14.75;3.65;;;16.50;99.90;;;;;;5055322;28;20383;-71
2022/08/01 04:36:09;;;;;;;12.85;3.08;;;16.90;99.90;;;;;;5055128;28;20044;-71
2022/08/01 04:38:38;;;;;;;15.98;3.22;;;16.70;99.90;;;;;;5055006;28;20121;-71
2022/08/01 04:41:06;;;;;;;16.83;3.83;;;16.90;99.90;;;;;;5072143;28;20044;-71
2022/08/01 04:43:33;;;;;;;17.67;3.58;;;16.70;99.90;;;;;;5055217;28;20071;-71
2022/08/01 04:46:00;;;;;;;15.43;3.53;;;16.70;99.90;;;;;;5073008;28;20208;-72
2022/08/01 04:48:26;;;;;;;15.88;3.47;;;17.40;99.90;;;;;;5072879;28;20048;-71
2022/08/01 04:50:52;;;;;;;19.73;3.63;;;16.70;99.90;;;;;;5054954;28;20039;-72
2022/08/01 04:53:21;;;;;;;21.13;3.40;;;16.70;99.90;;;;;;5054934;28;20048;-72
2022/08/01 04:55:47;;;;;;;16.65;3.97;;;16.90;99.90;;;;;;5038255;28;20371;-72
2022/08/01 04:58:14;;;;;;;17.42;4.30;;;16.80;99.90;;;;;;5054572;28;20043;-72
2022/08/01 05:00:40;;;;;;;23.42;4.13;;;16.80;99.90;;;;;;5072759;28;20033;-72
2022/08/01 05:03:05;;;;;;;20.55;3.35;;;16.60;99.90;;;;;;5072713;28;20089;-71
2022/08/01 05:05:31;;;;;;;14.88;3.17;;;16.80;99.90;;;;;;5097995;22;20518;-71
2022/08/01 05:07:57;;;;;;;18.45;4.07;;;16.70;99.90;;;;;;5054764;28;20047;-71
2022/08/01 05:10:23;;;;;;;18.27;3.85;;;16.60;99.90;;;;;;5072535;28;20481;-71
2022/08/01 05:12:48;;;;;;;13.38;3.30;;;16.80;99.90;;;;;;5054875;28;20090;-71
2022/08/01 05:15:14;;;;;;;16.23;3.92;;;17.10;99.90;;;;;;5072382;28;20498;-71
2022/08/01 05:17:39;;;;;;;12.27;3.08;;;16.90;99.90;;;;;;5054795;28;20059;-72
2022/08/01 05:20:08;;;;;;;15.77;4.05;;;16.90;99.90;;;;;;5038534;28;20082;-71
2022/08/01 05:22:33;;;;;;;24.55;4.28;;;16.50;99.90;;;;;;5054440;28;20098;-71
2022/08/01 05:24:59;;;;;;;14.85;3.08;;;16.70;99.90;;;;;;5071864;28;20036;-71
2022/08/01 05:27:25;;;;;;;25.95;4.38;;;16.90;99.90;;;;;;5072441;28;20032;-71
2022/08/01 05:29:51;;;;;;;17.38;4.03;;;16.70;99.90;;;;;;5054351;28;20482;-71
2022/08/01 05:32:17;;;;;;;15.88;3.75;;;16.80;99.90;;;;;;5072474;28;20108;-72
2022/08/01 05:34:42;;;;;;;13.02;3.85;;;17.00;99.90;;;;;;5053814;28;20037;-71
2022/08/01 05:37:08;;;;;;;17.05;3.50;;;16.60;99.90;;;;;;5054414;28;20036;-71
2022/08/01 05:39:34;;;;;;;19.10;3.22;;;16.70;99.90;;;;;;5072070;28;20068;-71
2022/08/01 05:41:59;;;;;;;15.68;3.60;;;16.80;99.90;;;;;;5072453;28;20063;-71
2022/08/01 05:44:25;;;;;;;17.50;3.95;;;16.80;99.90;;;;;;5053865;28;20036;-71
2022/08/01 05:46:51;;;;;;;23.25;4.32;;;17.50;99.90;;;;;;5054049;28;20498;-71
2022/08/01 05:49:16;;;;;;;14.30;3.95;;;16.80;99.90;;;;;;5054011;28;20059;-71
2022/08/01 05:51:42;;;;;;;14.43;3.72;;;16.90;99.90;;;;;;5072070;28;20488;-71
2022/08/01 05:54:08;;;;;;;18.17;3.58;;;16.80;99.90;;;;;;5071446;28;20107;-71
2022/08/01 05:56:33;;;;;;;13.27;3.50;;;16.80;99.90;;;;;;5037588;28;20493;-71
2022/08/01 05:58:59;;;;;;;15.15;3.70;;;16.90;99.90;;;;;;5072021;28;20120;-71
2022/08/01 06:01:25;;;;;;;14.52;3.97;;;16.80;99.90;;;;;;5054085;28;20522;-72
2022/08/01 06:03:50;;;;;;;20.80;3.85;;;17.00;99.90;;;;;;5053863;28;20045;-71
2022/08/01 06:06:16;;;;;;;16.67;3.38;;;17.00;99.90;;;;;;5054101;28;20036;-71
2022/08/01 06:08:42;;;;;;;18.40;3.50;;;16.90;99.90;;;;;;5071037;28;20089;-71
2022/08/01 06:11:07;;;;;;;12.63;2.90;;;16.80;99.90;;;;;;5072013;28;20513;-71
2022/08/01 06:13:33;;;;;;;17.45;3.13;;;17.10;99.90;;;;;;5053968;28;20563;-71
2022/08/01 06:15:58;;;;;;;12.07;3.10;;;16.90;99.90;;;;;;5071276;28;20035;-71
2022/08/01 06:18:24;;;;;;;16.63;3.47;;;17.10;99.90;;;;;;5037461;28;20129;-72
2022/08/01 06:20:49;;;;;;;13.65;3.17;;;17.10;99.90;;;;;;5057924;28;20040;-72
2022/08/01 06:23:15;;;;;;;14.02;3.00;;;17.00;99.90;;;;;;5073924;28;20044;-71
2022/08/01 06:25:44;;;;;;;25.17;5.05;;;17.80;99.90;;;;;;5056197;28;20040;-71
2022/08/01 06:28:10;;;;;;;24.88;4.47;;;17.10;99.90;;;;;;5064717;28;20158;-71
2022/08/01 06:30:36;;;;;;;21.70;3.70;;;17.20;99.90;;;;;;5046971;28;20045;-71
2022/08/01 06:33:02;;;;;;;15.30;3.80;;;17.50;99.90;;;;;;5050037;28;20033;-71
2022/08/01 06:35:29;;;;;;;15.90;4.30;;;17.40;99.90;;;;;;5066947;28;20123;-71
2022/08/01 06:37:56;;;;;;;15.48;3.47;;;17.90;99.90;;;;;;5050106;28;20059;-72
2022/08/01 06:40:21;;;;;;;10.70;3.42;;;17.40;99.90;;;;;;5068211;28;20072;-72
2022/08/01 06:42:47;;;;;;;16.02;3.47;;;17.40;99.90;;;;;;5050264;28;20067;-72
2022/08/01 06:45:14;;;;;;;14.30;3.85;;;18.60;99.90;;;;;;5044836;28;20062;-71
2022/08/01 06:47:41;;;;;;;15.27;3.83;;;17.70;99.90;;;;;;5049856;28;20044;-71
2022/08/01 06:50:08;;;;;;;15.63;3.15;;;17.50;99.90;;;;;;5049994;28;20032;-71
2022/08/01 06:52:35;;;;;;;18.23;3.00;;;17.90;99.90;;;;;;5050173;28;20036;-71
2022/08/01 06:55:01;;;;;;;13.32;3.80;;;17.80;99.90;;;;;;5051489;28;20421;-72
2022/08/01 06:57:27;;;;;;;18.25;3.30;;;17.70;99.90;;;;;;5070427;28;20040;-71
2022/08/01 06:59:53;;;;;;;19.05;2.88;;;17.60;99.90;;;;;;5051600;28;20041;-72
2022/08/01 07:02:18;;;;;;;14.18;2.88;;;17.80;99.90;;;;;;5071227;28;20047;-72
2022/08/01 07:04:44;;;;;;;14.13;3.03;;;17.60;99.90;;;;;;5070760;28;20041;-71
2022/08/01 07:07:10;;;;;;;13.50;2.90;;;17.60;99.90;;;;;;5074839;28;20036;-72
2022/08/01 07:09:36;;;;;;;18.92;4.55;;;17.30;99.90;;;;;;5062092;28;20044;-72
2022/08/01 07:12:03;;;;;;;12.05;3.05;;;17.40;99.90;;;;;;5053193;28;20426;-72
2022/08/01 07:14:28;;;;;;;15.40;3.78;;;17.40;99.90;;;;;;5048810;28;20048;-72
2022/08/01 07:16:54;;;;;;;16.15;2.80;;;17.40;99.90;;;;;;5070953;28;20033;-73
2022/08/01 07:19:19;;;;;;;13.48;3.22;;;17.60;99.90;;;;;;5035397;28;20154;-72
2022/08/01 07:21:45;;;;;;;12.95;3.65;;;18.20;99.90;;;;;;5073190;28;20044;-73
2022/08/01 07:24:13;;;;;;;18.15;2.45;;;18.20;99.90;;;;;;5074384;28;20041;-73
2022/08/01 07:26:44;;;;;;;13.02;2.70;;;18.40;99.90;;;;;;5056738;28;20113;-73
2022/08/01 07:29:10;;;;;;;12.43;2.78;;;18.30;99.90;;;;;;5056566;28;20040;-74
2022/08/01 07:31:35;;;;;;;11.15;2.70;;;18.10;99.90;;;;;;5039958;28;20044;-74
2022/08/01 07:34:01;;;;;;;10.27;2.00;;;19.20;99.90;;;;;;5056418;28;20028;-73
2022/08/01 07:36:27;;;;;;;12.75;3.38;;;18.60;99.90;;;;;;5056967;28;20043;-73
2022/08/01 07:38:52;;;;;;;14.18;2.42;;;18.10;99.90;;;;;;5074576;28;20045;-73
2022/08/01 07:41:18;;;;;;;17.33;2.90;;;18.60;99.90;;;;;;5079691;28;20032;-73
2022/08/01 07:43:43;;;;;;;10.13;2.10;;;18.60;99.90;;;;;;5056651;28;20531;-72
2022/08/01 07:46:09;;;;;;;15.20;2.47;;;18.50;99.90;;;;;;5056480;28;20044;-73
2022/08/01 07:48:35;;;;;;;10.98;1.80;;;18.50;99.90;;;;;;5039495;28;20123;-73
2022/08/01 07:51:00;;;;;;;15.13;3.17;;;18.40;99.90;;;;;;5074500;28;20041;-73
2022/08/01 07:53:26;;;;;;;10.07;2.10;;;18.80;99.90;;;;;;5074092;28;20386;-73
2022/08/01 07:55:52;;;;;;;6.15;1.75;;;18.70;99.90;;;;;;5056224;28;20028;-73
2022/08/01 07:58:18;;;;;;;11.57;2.10;;;18.60;99.90;;;;;;5056437;28;20080;-73
2022/08/01 08:00:44;;;;;;;13.50;2.53;;;19.00;99.90;;;;;;5074283;28;20078;-72
2022/08/01 08:03:09;;;;;;;10.82;2.10;;;19.00;99.90;;;;;;5039519;28;20040;-73
2022/08/01 08:05:35;;;;;;;8.90;2.08;;;19.10;99.90;;;;;;5055783;28;20051;-73
2022/08/01 08:08:09;;;;;;;13.95;3.15;;;19.60;99.90;;;;;;5073593;28;20398;-73
2022/08/01 08:10:35;;;;;;;8.43;1.73;;;19.30;99.90;;;;;;5042383;28;20064;-72
2022/08/01 08:13:01;;;;;;;13.15;2.15;;;18.80;99.90;;;;;;5049128;28;20028;-73
2022/08/01 08:15:28;;;;;;;12.70;2.92;;;18.90;99.90;;;;;;5073703;28;20530;-73
2022/08/01 08:17:54;;;;;;;8.27;2.10;;;18.90;99.90;;;;;;5073972;28;20560;-73
2022/08/01 08:20:24;;;;;;;12.02;2.42;;;19.20;99.90;;;;;;5073662;28;20041;-73
2022/08/01 08:22:50;;;;;;;11.68;2.72;;;19.40;99.90;;;;;;5056153;28;20059;-73
2022/08/01 08:25:16;;;;;;;8.38;2.15;;;19.70;99.90;;;;;;5055436;28;20049;-74
2022/08/01 08:27:41;;;;;;;7.95;1.67;;;18.80;99.90;;;;;;5039372;28;20415;-73
2022/08/01 08:30:07;;;;;;;10.50;2.67;;;19.80;99.90;;;;;;5055804;28;20068;-73
2022/08/01 08:32:34;;;;;;;10.02;2.40;;;19.20;99.90;;;;;;5055272;28;20037;-74
2022/08/01 08:35:00;;;;;;;9.07;1.50;;;19.10;99.90;;;;;;5046066;28;20040;-73
2022/08/01 08:37:25;;;;;;;15.07;2.70;;;18.90;99.90;;;;;;5093863;28;20627;-73
2022/08/01 08:39:51;;;;;;;12.90;1.88;;;19.10;99.90;;;;;;5075364;28;20067;-73
2022/08/01 08:42:18;;;;;;;9.80;1.92;;;19.10;99.90;;;;;;5075406;28;20044;-74
2022/08/01 08:44:43;;;;;;;7.72;2.10;;;19.10;99.90;;;;;;5075464;28;20044;-73
2022/08/01 08:47:11;;;;;;;8.57;2.10;;;19.80;99.90;;;;;;5093609;28;20485;-74
2022/08/01 08:49:37;;;;;;;9.60;1.95;;;19.40;99.90;;;;;;5058690;28;20039;-74
2022/08/01 08:52:04;;;;;;;14.85;2.08;;;19.50;99.90;;;;;;5075222;28;20120;-73
2022/08/01 08:54:32;;;;;;;10.27;2.22;;;19.50;99.90;;;;;;5075043;28;20077;-74
2022/08/01 08:56:59;;;;;;;8.05;1.80;;;19.40;99.90;;;;;;5058461;28;20040;-74
2022/08/01 08:59:25;;;;;;;7.85;2.03;;;19.50;99.90;;;;;;5075081;28;20039;-74
2022/08/01 09:01:52;;;;;;;9.90;2.03;;;19.80;99.90;;;;;;5074850;28;20040;-74
2022/08/01 09:04:20;;;;;;;14.57;2.13;;;19.80;99.90;;;;;;5090703;28;20149;-73
2022/08/01 09:06:46;;;;;;;10.38;1.90;;;20.10;99.90;;;;;;5077941;28;20091;-74
2022/08/01 09:09:11;;;;;;;12.73;1.77;;;19.50;99.90;;;;;;5055290;28;20056;-74
2022/08/01 09:11:37;;;;;;;6.00;1.60;;;20.50;99.90;;;;;;5072776;28;20048;-74
2022/08/01 09:14:10;;;;;;;8.85;2.00;;;19.60;99.90;;;;;;5054600;28;20036;-73
2022/08/01 09:16:40;;;;;;;10.57;1.80;;;19.80;99.90;;;;;;5072961;28;20397;-74
2022/08/01 09:19:19;;;;;;;9.05;1.75;;;19.90;99.90;;;;;;5055123;28;20116;-73
2022/08/01 09:21:57;;;;;;;8.13;2.20;;;19.60;99.90;;;;;;5054848;28;20055;-74
2022/08/01 09:24:25;;;;;;;9.13;1.88;;;19.60;99.90;;;;;;5072321;28;20048;-74
2022/08/01 09:26:52;;;;;;;7.60;1.50;;;19.80;99.90;;;;;;5045575;28;20539;-73
2022/08/01 09:29:20;;;;;;;8.48;1.90;;;20.80;99.90;;;;;;5051976;28;20032;-74
2022/08/01 09:31:46;;;;;;;6.18;1.48;;;20.10;99.90;;;;;;5062151;28;20040;-74
2022/08/01 09:34:12;;;;;;;8.35;2.03;;;20.20;99.90;;;;;;5080670;28;20043;-74
2022/08/01 09:36:44;;;;;;;7.75;1.50;;;20.10;99.90;;;;;;5082006;28;20035;-75
2022/08/01 09:39:14;;;;;;;4.95;1.40;;;20.90;99.90;;;;;;5056232;28;20063;-73
2022/08/01 09:41:40;;;;;;;7.50;1.48;;;20.20;99.90;;;;;;5072525;28;20065;-73
2022/08/01 09:44:06;;;;;;;8.07;1.50;;;21.00;99.90;;;;;;5071159;28;20051;-74
2022/08/01 09:46:32;;;;;;;10.45;2.53;;;20.00;99.90;;;;;;5054335;28;20040;-73
2022/08/01 09:49:04;;;;;;;9.77;2.05;;;20.30;99.90;;;;;;5037323;28;20040;-73
2022/08/01 09:51:35;;;;;;;7.00;1.60;;;20.40;99.90;;;;;;5054118;28;20032;-74
2022/08/01 09:54:04;;;;;;;11.73;2.08;;;20.70;99.90;;;;;;5053441;28;20120;-73
2022/08/01 09:56:45;;;;;;;7.65;1.80;;;21.00;99.90;;;;;;5055150;28;20142;-75
2022/08/01 09:59:11;;;;;;;7.97;1.90;;;21.80;99.90;;;;;;5054212;28;20040;-74
2022/08/01 10:01:48;;;;;;;7.88;1.60;;;20.70;99.90;;;;;;5037511;28;20475;-75
2022/08/01 10:04:21;;;;;;;11.45;2.08;;;20.30;99.90;;;;;;5071252;28;20044;-76
2022/08/01 10:06:52;;;;;;;;;;;20.50;99.90;;;;;;5072759;28;20041;-75
2022/08/01 10:09:30;;;;;;;10.27;1.48;;;20.80;99.90;;;;;;5053847;28;20003;-74
2022/08/01 10:11:56;;;;;;;8.10;1.52;;;20.80;99.90;;;;;;5037708;28;20047;-75
2022/08/01 10:14:25;;;;;;;5.82;1.50;;;21.20;99.90;;;;;;5053910;28;20379;-74
2022/08/01 10:16:53;;;;;;;13.20;2.50;;;20.10;99.90;;;;;;5053828;28;20448;-74
2022/08/01 10:19:22;;;;;;;5.07;1.30;;;20.10;99.90;;;;;;5072143;28;20078;-75
2022/08/01 10:21:52;;;;;;;6.65;1.33;;;20.30;99.90;;;;;;5071818;28;20526;-75
2022/08/01 10:24:22;;;;;;;6.90;1.45;;;20.50;99.90;;;;;;5053428;28;20036;-75
2022/08/01 10:26:58;;;;;;;10.45;2.70;;;20.90;99.90;;;;;;5071633;28;20032;-75
2022/08/01 10:29:26;;;;;;;5.97;1.52;;;20.70;99.90;;;;;;5053983;28;20394;-75
2022/08/01 10:31:52;;;;;;;6.13;1.42;;;21.40;99.90;;;;;;5036962;28;20502;-77
2022/08/01 10:34:19;;;;;;;7.80;2.08;;;21.00;99.90;;;;;;5053424;28;20086;-74
2022/08/01 10:36:46;;;;;;;10.93;1.38;;;20.70;99.90;;;;;;5037059;28;20044;-75
2022/08/01 10:39:12;;;;;;;7.47;1.15;;;20.70;99.90;;;;;;5071613;28;20044;-74
2022/08/01 10:41:39;;;;;;;7.47;1.40;;;22.00;99.90;;;;;;5071466;28;20072;-77
2022/08/01 10:44:07;;;;;;;9.65;1.23;;;21.10;99.90;;;;;;5053110;28;20517;-74
2022/08/01 10:46:36;;;;;;;8.63;1.65;;;20.70;99.90;;;;;;5071654;28;20041;-76
2022/08/01 10:49:15;;;;;;;7.18;1.35;;;21.10;99.90;;;;;;5053558;28;20059;-75
2022/08/01 10:51:41;;;;;;;4.13;1.15;;;21.00;99.90;;;;;;5053438;28;20307;-74
2022/08/01 10:54:09;;;;;;;8.82;1.70;;;21.10;99.90;;;;;;5053388;28;20502;-75
2022/08/01 10:56:56;;;;;;;7.43;1.85;;;21.70;99.90;;;;;;5057871;28;20098;-75
2022/08/01 10:59:24;;;;;;;7.25;1.70;;;21.20;99.90;;;;;;5057627;28;20044;-75
2022/08/01 11:01:58;;;;;;;6.28;1.60;;;20.80;99.90;;;;;;5057402;28;20044;-75
2022/08/01 11:04:53;;;;;;;7.93;2.00;;;20.90;99.90;;;;;;5082766;22;20051;-70
2022/08/01 11:07:23;;;;;;;7.20;1.40;;;22.10;99.90;;;;;;4985335;28;20507;-69
2022/08/01 11:10:02;;;;;;;8.00;1.20;;;21.20;99.90;;;;;;5050772;28;20159;-69
2022/08/01 11:12:39;;;;;;;7.95;1.45;;;21.50;99.90;;;;;;5053422;28;20044;-70
2022/08/01 11:15:07;;;;;;;6.57;1.33;;;22.60;99.90;;;;;;5051907;28;20417;-69
2022/08/01 11:17:36;;;;;;;7.57;1.50;;;20.90;99.80;;;;;;5052028;28;20084;-69
2022/08/01 11:20:21;;;;;;;7.75;1.60;;;20.70;99.90;;;;;;5038739;28;20411;-69
2022/08/01 11:23:04;;;;;;;8.43;1.45;;;21.00;99.70;;;;;;5033518;28;20050;-69
2022/08/01 11:25:33;;;;;;;;;;;21.10;99.90;;;;;;5032027;28;20490;-69
2022/08/01 11:28:15;;;;;;;7.60;1.25;;;21.40;99.90;;;;;;5031873;28;19972;-69
2022/08/01 11:30:46;;;;;;;5.63;1.07;;;21.70;99.90;;;;;;5032389;28;20465;-69
2022/08/01 11:33:13;;;;;;;4.43;1.77;;;21.50;99.90;;;;;;5033397;28;20037;-69
2022/08/01 11:36:15;;;;;;;8.05;1.27;;;21.70;99.90;;;;;;5031465;28;20040;-69
2022/08/01 11:38:47;;;;;;;7.13;1.38;;;21.00;99.60;;;;;;5032892;28;20147;-69
2022/08/01 11:41:20;;;;;;;7.03;1.33;;;21.10;99.90;;;;;;5015755;28;20076;-69
2022/08/01 11:43:59;;;;;;;4.53;0.95;;;21.10;99.40;;;;;;5014993;28;20052;-69
2022/08/01 11:47:06;;;;;;;7.53;1.45;;;21.00;99.20;;;;;;5032924;28;20120;-69
2022/08/01 11:49:44;;;;;;;12.15;1.40;;;21.20;99.40;;;;;;5031571;28;20519;-69
2022/08/01 11:52:16;;;;;;;5.10;1.10;;;21.10;99.00;;;;;;5031200;28;20053;-70
2022/08/01 11:54:48;;;;;;;8.23;2.03;;;21.00;99.20;;;;;;5031104;28;20045;-69
2022/08/01 11:57:18;;;;;;;7.63;1.67;;;21.20;99.80;;;;;;5015127;28;20063;-69
2022/08/01 11:59:57;;;;;;;5.22;1.27;;;20.80;99.40;;;;;;5031560;28;20049;-69
2022/08/01 12:02:33;;;;;;;7.45;1.40;;;21.70;98.80;;;;;;5032905;28;20039;-69
2022/08/01 12:05:05;;;;;;;5.25;1.58;;;21.20;99.30;;;;;;4994904;28;1046650;-69
2022/08/01 12:07:32;;;;;;;2.92;1.00;;;20.80;98.80;;;;;;5033089;28;20049;-69
2022/08/01 12:10:07;;;;;;;5.15;1.42;;;21.20;99.90;;;;;;5016080;28;20411;-72
2022/08/01 12:12:35;;;;;;;6.10;1.10;;;20.80;99.40;;;;;;5015675;28;20040;-69
2022/08/01 12:15:08;;;;;;;5.47;0.90;;;21.20;99.90;;;;;;5015511;28;20414;-69
2022/08/01 12:17:36;;;;;;;5.32;0.90;;;21.30;99.40;;;;;;5033679;28;20038;-69
2022/08/01 12:20:04;;;;;;;5.45;1.17;;;21.10;98.90;;;;;;5033536;28;20049;-69
2022/08/01 12:22:30;;;;;;;7.82;1.02;;;21.00;98.90;;;;;;5041743;28;20051;-69
2022/08/01 12:25:04;;;;;;;6.32;1.27;;;21.40;99.40;;;;;;5051653;28;20040;-69
2022/08/01 12:27:30;;;;;;;4.85;0.90;;;21.80;99.50;;;;;;5053503;28;20041;-69
2022/08/01 12:29:57;;;;;;;6.20;1.50;;;21.30;99.80;;;;;;5051929;28;20095;-69
2022/08/01 12:32:30;;;;;;;7.85;1.42;;;21.00;99.50;;;;;;5053271;28;20037;-69
2022/08/01 12:34:56;;;;;;;;;;;21.10;98.60;;;;;;5051895;28;20041;-69
2022/08/01 12:37:23;;;;;;;5.00;1.10;;;21.30;99.00;;;;;;5053186;28;19917;-69
2022/08/01 12:39:49;;;;;;;8.07;1.20;;;21.80;98.50;;;;;;5051844;28;20083;-69
2022/08/01 12:42:15;;;;;;;4.40;1.10;;;21.30;99.20;;;;;;5053320;28;20061;-69
2022/08/01 12:44:44;;;;;;;5.57;1.10;;;21.40;98.40;;;;;;5051644;28;20041;-69
2022/08/01 12:47:10;;;;;;;7.07;1.33;;;21.30;99.00;;;;;;5051596;28;20041;-69
2022/08/01 12:49:37;;;;;;;9.55;1.70;;;21.80;98.60;;;;;;5051720;28;20048;-69
2022/08/01 12:52:04;;;;;;;4.47;1.10;;;22.50;98.80;;;;;;5052197;28;20036;-69